createdAt,value
2023-04-21T00:01:03.884Z,100804.88
2023-04-21T00:03:34.082Z,100807.16
2023-04-21T00:06:01.789Z,100808.94
2023-04-21T00:08:29.074Z,100801.50
2023-04-21T00:10:56.514Z,100797.03
2023-04-21T00:13:24.259Z,100793.25
2023-04-21T00:15:51.880Z,100802.94
2023-04-21T00:18:19.464Z,100787.13
2023-04-21T00:20:47.219Z,100784.50
2023-04-21T00:23:14.639Z,100781.78
2023-04-21T00:25:41.933Z,100774.94
2023-04-21T00:28:09.033Z,100764.50
2023-04-21T00:30:38.298Z,100763.69
2023-04-21T00:33:05.691Z,100768.03
2023-04-21T00:35:33.298Z,100761.91
2023-04-21T00:38:01.617Z,100761.63
2023-04-21T00:40:30.020Z,100760.72
2023-04-21T00:42:57.399Z,100759.84
2023-04-21T00:45:24.925Z,100752.84
2023-04-21T00:47:52.498Z,100748.50
2023-04-21T00:50:20.174Z,100745.38
2023-04-21T00:52:49.111Z,100740.94
2023-04-21T00:55:17.059Z,100732.13
2023-04-21T00:57:45.040Z,100724.91
2023-04-21T01:00:13.092Z,100727.72
2023-04-21T01:02:41.576Z,100727.25
2023-04-21T01:05:09.815Z,100735.22
2023-04-21T01:07:39.212Z,100735.72
2023-04-21T01:10:07.518Z,100716.63
2023-04-21T01:12:42.637Z,100719.34
2023-04-21T01:15:11.376Z,100715.00
2023-04-21T01:17:40.380Z,100717.47
2023-04-21T01:20:10.934Z,100717.91
2023-04-21T01:22:39.954Z,100717.34
2023-04-21T01:25:08.984Z,100714.66
2023-04-21T01:27:37.188Z,100714.59
2023-04-21T01:30:06.223Z,100707.88
2023-04-21T01:32:33.914Z,100713.03
2023-04-21T01:35:01.571Z,100719.28
2023-04-21T01:37:33.005Z,100718.41
2023-04-21T01:40:05.263Z,100719.13
2023-04-21T01:42:37.532Z,100720.69
2023-04-21T01:45:05.601Z,100725.72
2023-04-21T01:47:33.321Z,100729.47
2023-04-21T01:50:00.987Z,100717.72
2023-04-21T01:52:28.467Z,100714.47
2023-04-21T01:54:56.391Z,100718.88
2023-04-21T01:57:23.839Z,100706.66
2023-04-21T01:59:52.062Z,100708.00
2023-04-21T02:02:19.452Z,100708.66
2023-04-21T02:04:47.181Z,100710.38
2023-04-21T02:07:14.794Z,100706.81
2023-04-21T02:09:42.804Z,100701.38
2023-04-21T02:12:10.381Z,100697.25
2023-04-21T02:14:38.692Z,100697.28
2023-04-21T02:17:08.174Z,100703.16
2023-04-21T02:19:35.673Z,100692.81
2023-04-21T02:22:03.462Z,100686.06
2023-04-21T02:24:30.977Z,100689.59
2023-04-21T02:26:58.713Z,100686.53
2023-04-21T02:29:29.062Z,100676.34
2023-04-21T02:32:05.315Z,100680.63
2023-04-21T02:34:43.021Z,100678.34
2023-04-21T02:37:10.461Z,100671.00
2023-04-21T02:39:38.141Z,100671.06
2023-04-21T02:42:06.338Z,100670.91
2023-04-21T02:44:33.809Z,100682.50
2023-04-21T02:47:01.267Z,100670.22
2023-04-21T02:49:28.808Z,100673.69
2023-04-21T02:52:00.911Z,100670.19
2023-04-21T02:54:28.394Z,100669.44
2023-04-21T02:56:55.699Z,100673.84
2023-04-21T02:59:23.042Z,100673.91
2023-04-21T03:01:50.646Z,100667.97
2023-04-21T03:04:20.002Z,100662.75
2023-04-21T03:06:47.448Z,100660.78
2023-04-21T03:09:14.756Z,100657.47
2023-04-21T03:11:41.972Z,100653.94
2023-04-21T03:14:09.507Z,100648.06
2023-04-21T03:16:36.965Z,100652.50
2023-04-21T03:19:06.206Z,100652.50
2023-04-21T03:21:36.212Z,100657.19
2023-04-21T03:24:03.907Z,100657.84
2023-04-21T03:26:31.607Z,100653.06
2023-04-21T03:28:59.026Z,100666.03
2023-04-21T03:31:26.513Z,100648.56
2023-04-21T03:33:54.008Z,100643.31
2023-04-21T03:36:21.689Z,100636.63
2023-04-21T03:38:49.255Z,100634.91
2023-04-21T03:41:17.633Z,100634.09
2023-04-21T03:43:45.296Z,100634.97
2023-04-21T03:46:22.542Z,100630.50
2023-04-21T03:48:50.177Z,100628.59
2023-04-21T03:51:17.636Z,100640.66
2023-04-21T03:53:45.054Z,100632.69
2023-04-21T03:56:12.348Z,100632.50
2023-04-21T03:58:39.793Z,100633.41
2023-04-21T04:01:07.867Z,100632.44
2023-04-21T04:03:35.748Z,100627.16
2023-04-21T04:06:04.260Z,100626.91
2023-04-21T04:08:31.801Z,100641.44
2023-04-21T04:10:59.118Z,100637.31
2023-04-21T04:13:27.733Z,100627.88
2023-04-21T04:15:55.331Z,100632.09
2023-04-21T04:18:22.805Z,100639.88
2023-04-21T04:20:50.044Z,100630.47
2023-04-21T04:23:17.286Z,100627.91
2023-04-21T04:25:44.545Z,100638.16
2023-04-21T04:28:12.778Z,100633.66
2023-04-21T04:30:40.169Z,100637.88
2023-04-21T04:33:07.585Z,100634.84
2023-04-21T04:35:35.093Z,100628.06
2023-04-21T04:38:04.447Z,100628.91
2023-04-21T04:40:33.339Z,100624.19
2023-04-21T04:43:02.782Z,100624.09
2023-04-21T04:45:33.116Z,100621.50
2023-04-21T04:48:00.769Z,100622.31
2023-04-21T04:50:28.257Z,100615.97
2023-04-21T04:52:57.661Z,100625.41
2023-04-21T04:55:26.065Z,100629.88
2023-04-21T04:57:53.540Z,100627.75
2023-04-21T05:00:21.079Z,100637.50
2023-04-21T05:02:48.792Z,100633.13
2023-04-21T05:05:16.537Z,100624.22
2023-04-21T05:07:44.294Z,100629.00
2023-04-21T05:10:11.807Z,100630.34
2023-04-21T05:12:39.325Z,100626.16
2023-04-21T05:15:06.906Z,100620.19
2023-04-21T05:17:34.360Z,100624.78
2023-04-21T05:20:01.799Z,100628.38
2023-04-21T05:22:29.112Z,100631.97
2023-04-21T05:24:56.328Z,100629.75
2023-04-21T05:27:23.830Z,100627.56
2023-04-21T05:29:51.280Z,100629.00
2023-04-21T05:32:18.704Z,100626.13
2023-04-21T05:34:46.153Z,100627.50
2023-04-21T05:37:13.498Z,100629.50
2023-04-21T05:39:40.863Z,100627.41
2023-04-21T05:42:11.010Z,100628.25
2023-04-21T05:44:38.839Z,100631.22
2023-04-21T05:47:06.430Z,100626.88
2023-04-21T05:49:33.961Z,100620.63
2023-04-21T05:52:01.530Z,100618.59
2023-04-21T05:54:29.069Z,100614.53
2023-04-21T05:56:57.069Z,100611.16
2023-04-21T05:59:30.246Z,100614.66
2023-04-21T06:02:00.223Z,100617.28
2023-04-21T06:04:27.863Z,100616.34
2023-04-21T06:06:56.087Z,100618.13
2023-04-21T06:09:23.459Z,100616.34
2023-04-21T06:11:50.946Z,100619.84
2023-04-21T06:14:18.590Z,100619.81
2023-04-21T06:16:46.758Z,100619.78
2023-04-21T06:19:14.212Z,100621.59
2023-04-21T06:21:41.703Z,100618.94
2023-04-21T06:24:09.291Z,100609.28
2023-04-21T06:26:36.876Z,100609.19
2023-04-21T06:29:04.370Z,100612.66
2023-04-21T06:31:31.977Z,100609.16
2023-04-21T06:33:59.793Z,100610.09
2023-04-21T06:36:27.645Z,100611.75
2023-04-21T06:39:05.141Z,100600.91
2023-04-21T06:41:38.434Z,100598.75
2023-04-21T06:44:06.164Z,100602.91
2023-04-21T06:46:33.628Z,100600.44
2023-04-21T06:49:01.269Z,100594.19
2023-04-21T06:51:28.711Z,100591.25
2023-04-21T06:53:56.237Z,100590.88
2023-04-21T06:56:23.680Z,100587.81
2023-04-21T06:58:51.140Z,100581.66
2023-04-21T07:01:18.686Z,100588.72
2023-04-21T07:03:46.756Z,100584.19
2023-04-21T07:06:14.332Z,100586.59
2023-04-21T07:08:43.172Z,100580.25
2023-04-21T07:11:10.608Z,100585.59
2023-04-21T07:13:38.053Z,100584.19
2023-04-21T07:16:05.934Z,100579.03
2023-04-21T07:18:34.799Z,100590.34
2023-04-21T07:21:02.248Z,100581.41
2023-04-21T07:23:29.876Z,100573.78
2023-04-21T07:25:59.084Z,100578.72
2023-04-21T07:28:26.766Z,100575.34
2023-04-21T07:30:54.220Z,100571.34
2023-04-21T07:33:21.755Z,100564.78
2023-04-21T07:35:49.240Z,100571.56
2023-04-21T07:38:16.654Z,100565.06
2023-04-21T07:40:44.741Z,100569.41
2023-04-21T07:43:12.308Z,100560.13
2023-04-21T07:45:39.848Z,100563.72
2023-04-21T07:48:07.798Z,100562.38
2023-04-21T07:50:36.484Z,100562.00
2023-04-21T07:53:03.969Z,100568.56
2023-04-21T07:55:31.525Z,100564.88
2023-04-21T07:57:59.004Z,100561.84
2023-04-21T08:00:26.730Z,100561.34
2023-04-21T08:02:54.350Z,100568.25
2023-04-21T08:05:22.061Z,100567.03
2023-04-21T08:07:49.887Z,100566.50
2023-04-21T08:10:17.340Z,100573.91
2023-04-21T08:12:44.846Z,100570.63
2023-04-21T08:15:12.677Z,100566.19
2023-04-21T08:17:40.350Z,100564.66
2023-04-21T08:20:08.840Z,100567.59
2023-04-21T08:22:39.177Z,100554.28
2023-04-21T08:25:07.223Z,100556.25
2023-04-21T08:27:34.654Z,100554.97
2023-04-21T08:30:02.324Z,100550.38
2023-04-21T08:32:29.814Z,100549.38
2023-04-21T08:34:57.685Z,100550.16
2023-04-21T08:37:25.137Z,100545.72
2023-04-21T08:39:53.777Z,100547.66
2023-04-21T08:42:21.254Z,100548.28
2023-04-21T08:44:49.153Z,100549.00
2023-04-21T08:47:16.733Z,100534.16
2023-04-21T08:49:50.150Z,100544.84
2023-04-21T08:52:18.476Z,100546.38
2023-04-21T08:54:47.561Z,100540.91
2023-04-21T08:57:16.284Z,100537.47
2023-04-21T08:59:45.640Z,100539.56
2023-04-21T09:02:19.059Z,100538.94
2023-04-21T09:04:49.298Z,100529.53
2023-04-21T09:07:34.342Z,100528.91
2023-04-21T09:10:02.379Z,100521.69
2023-04-21T09:12:30.799Z,100529.31
2023-04-21T09:14:58.466Z,100531.78
2023-04-21T09:17:36.470Z,100524.25
2023-04-21T09:20:15.984Z,100528.00
2023-04-21T09:22:44.646Z,100531.19
2023-04-21T09:25:17.712Z,100527.75
2023-04-21T09:27:47.149Z,100522.69
2023-04-21T09:30:19.257Z,100526.00
2023-04-21T09:32:47.008Z,100517.66
2023-04-21T09:35:14.564Z,100524.72
2023-04-21T09:37:44.174Z,100520.00
2023-04-21T09:40:15.408Z,100520.78
2023-04-21T09:42:44.773Z,100511.06
2023-04-21T09:47:51.443Z,100499.72
2023-04-21T09:50:39.262Z,100494.72
2023-04-21T09:53:14.387Z,100504.13
2023-04-21T09:55:42.768Z,100493.50
2023-04-21T09:58:15.550Z,100493.25
2023-04-21T10:00:43.676Z,100492.31
2023-04-21T10:03:14.059Z,100492.50
2023-04-21T10:05:43.034Z,100491.75
2023-04-21T10:08:12.216Z,100499.13
2023-04-21T10:10:40.374Z,100494.38
2023-04-21T10:13:13.017Z,100484.81
2023-04-21T10:15:42.472Z,100491.53
2023-04-21T10:18:14.534Z,100482.97
2023-04-21T10:20:59.223Z,100482.09
2023-04-21T10:23:32.571Z,100475.59
2023-04-21T10:26:06.792Z,100483.81
2023-04-21T10:28:55.010Z,100469.03
2023-04-21T10:31:51.871Z,100465.19
2023-04-21T10:34:30.402Z,100465.53
2023-04-21T10:36:58.247Z,100470.06
2023-04-21T10:39:36.201Z,100471.53
2023-04-21T10:42:13.042Z,100467.97
2023-04-21T10:44:45.587Z,100462.22
2023-04-21T10:47:13.715Z,100464.81
2023-04-21T10:49:41.296Z,100461.66
2023-04-21T10:52:10.979Z,100440.34
2023-04-21T10:55:08.465Z,100446.28
2023-04-21T10:57:38.757Z,100444.53
2023-04-21T11:00:07.267Z,100449.22
2023-04-21T11:02:38.661Z,100438.03
2023-04-21T11:05:09.502Z,100435.50
2023-04-21T11:07:37.233Z,100439.34
2023-04-21T11:10:08.771Z,100435.16
2023-04-21T11:12:41.052Z,100447.22
2023-04-21T11:15:11.951Z,100432.50
2023-04-21T11:17:40.069Z,100427.66
2023-04-21T11:20:08.682Z,100428.13
2023-04-21T11:22:39.060Z,100428.41
2023-04-21T11:25:18.623Z,100421.53
2023-04-21T11:27:56.732Z,100414.81
2023-04-21T11:30:34.918Z,100415.44
2023-04-21T11:33:03.095Z,100422.03
2023-04-21T11:35:32.294Z,100405.06
2023-04-21T11:38:06.089Z,100409.81
2023-04-21T11:40:50.013Z,100401.50
2023-04-21T11:43:17.683Z,100403.03
2023-04-21T11:45:49.640Z,100403.00
2023-04-21T11:48:18.059Z,100403.19
2023-04-21T11:50:50.603Z,100412.19
2023-04-21T11:53:19.775Z,100398.19
2023-04-21T11:55:47.606Z,100408.50
2023-04-21T11:58:17.958Z,100403.44
2023-04-21T12:00:46.394Z,100405.91
2023-04-21T12:03:14.577Z,100392.78
2023-04-21T12:05:42.230Z,100399.03
2023-04-21T12:08:16.472Z,100404.34
2023-04-21T12:10:47.306Z,100391.16
2023-04-21T12:13:25.216Z,100381.53
2023-04-21T12:15:52.783Z,100384.66
2023-04-21T12:18:20.234Z,100383.25
2023-04-21T12:20:52.809Z,100381.53
2023-04-21T12:23:20.354Z,100378.97
2023-04-21T12:25:48.106Z,100374.13
2023-04-21T12:28:17.415Z,100379.88
2023-04-21T12:30:45.399Z,100378.00
2023-04-21T12:33:13.292Z,100378.72
2023-04-21T12:35:41.023Z,100382.19
2023-04-21T12:38:08.462Z,100373.03
2023-04-21T12:40:35.902Z,100366.69
2023-04-21T12:43:03.547Z,100367.50
2023-04-21T12:45:32.760Z,100372.66
2023-04-21T12:48:01.174Z,100371.56
2023-04-21T12:50:28.699Z,100374.84
2023-04-21T12:52:56.287Z,100375.94
2023-04-21T12:55:23.989Z,100365.66
2023-04-21T12:57:52.900Z,100373.56
2023-04-21T13:00:20.555Z,100369.84
2023-04-21T13:02:48.225Z,100370.56
2023-04-21T13:05:15.761Z,100370.50
2023-04-21T13:07:43.348Z,100364.66
2023-04-21T13:10:11.326Z,100357.03
2023-04-21T13:12:38.936Z,100356.28
2023-04-21T13:15:07.055Z,100352.72
2023-04-21T13:17:34.647Z,100349.06
2023-04-21T13:20:02.343Z,100353.59
2023-04-21T13:22:29.922Z,100354.66
2023-04-21T13:24:57.458Z,100354.28
2023-04-21T13:27:25.062Z,100345.66
2023-04-21T13:29:54.386Z,100338.41
2023-04-21T13:32:21.959Z,100348.78
2023-04-21T13:34:49.416Z,100347.19
2023-04-21T13:37:17.312Z,100333.91
2023-04-21T13:39:44.865Z,100322.53
2023-04-21T13:42:12.553Z,100325.09
2023-04-21T13:44:40.021Z,100311.03
2023-04-21T13:47:09.364Z,100325.56
2023-04-21T13:49:36.863Z,100318.56
2023-04-21T13:52:04.474Z,100313.94
2023-04-21T13:54:32.089Z,100320.78
2023-04-21T13:57:00.139Z,100307.50
2023-04-21T13:59:28.070Z,100301.22
2023-04-21T14:01:55.717Z,100310.34
2023-04-21T14:04:23.417Z,100305.47
2023-04-21T14:06:51.451Z,100299.31
2023-04-21T14:09:18.992Z,100291.25
2023-04-21T14:11:46.628Z,100286.91
2023-04-21T14:14:18.962Z,100292.34
2023-04-21T14:16:52.252Z,100294.25
2023-04-21T14:19:19.876Z,100286.56
2023-04-21T14:21:47.417Z,100287.44
2023-04-21T14:24:14.839Z,100285.81
2023-04-21T14:26:42.804Z,100278.84
2023-04-21T14:29:10.471Z,100276.09
2023-04-21T14:31:38.094Z,100282.41
2023-04-21T14:34:05.741Z,100271.09
2023-04-21T14:36:33.363Z,100279.13
2023-04-21T14:39:00.937Z,100265.75
2023-04-21T14:41:28.593Z,100260.19
2023-04-21T14:43:57.775Z,100269.69
2023-04-21T14:46:25.455Z,100269.25
2023-04-21T14:48:54.010Z,100260.44
2023-04-21T14:51:21.861Z,100263.91
2023-04-21T14:53:49.259Z,100253.31
2023-04-21T14:56:16.801Z,100262.06
2023-04-21T14:58:44.223Z,100247.16
2023-04-21T15:01:12.744Z,100256.34
2023-04-21T15:03:40.796Z,100250.06
2023-04-21T15:06:08.536Z,100241.25
2023-04-21T15:08:36.037Z,100245.53
2023-04-21T15:11:05.290Z,100235.84
2023-04-21T15:13:34.345Z,100236.63
2023-04-21T15:16:01.857Z,100231.84
2023-04-21T15:18:29.370Z,100229.72
2023-04-21T15:20:57.443Z,100231.88
2023-04-21T15:23:24.875Z,100227.13
2023-04-21T15:25:52.360Z,100228.25
2023-04-21T15:28:19.813Z,100232.34
2023-04-21T15:30:47.604Z,100225.41
2023-04-21T15:33:17.149Z,100224.69
2023-04-21T15:35:44.721Z,100219.53
2023-04-21T15:38:12.134Z,100225.84
2023-04-21T15:40:53.139Z,100220.31
2023-04-21T15:43:27.613Z,100220.44
2023-04-21T15:45:55.267Z,100214.34
2023-04-21T15:48:23.204Z,100213.72
2023-04-21T15:50:50.999Z,100210.50
2023-04-21T15:53:20.095Z,100214.34
2023-04-21T15:55:48.089Z,100215.59
2023-04-21T15:58:15.856Z,100205.88
2023-04-21T16:00:43.394Z,100200.72
2023-04-21T16:03:11.156Z,100201.53
2023-04-21T16:05:39.284Z,100202.28
2023-04-21T16:08:07.013Z,100200.44
2023-04-21T16:10:35.535Z,100192.31
2023-04-21T16:13:03.122Z,100191.25
2023-04-21T16:15:30.924Z,100192.97
2023-04-21T16:17:58.736Z,100201.72
2023-04-21T16:20:26.320Z,100196.41
2023-04-21T16:22:53.938Z,100208.50
2023-04-21T16:25:21.819Z,100195.16
2023-04-21T16:27:49.345Z,100196.78
2023-04-21T16:30:16.798Z,100193.16
2023-04-21T16:32:44.306Z,100195.88
2023-04-21T16:35:11.874Z,100185.31
2023-04-21T16:37:42.704Z,100190.38
2023-04-21T16:40:11.783Z,100195.53
2023-04-21T16:42:39.625Z,100181.63
2023-04-21T16:45:07.664Z,100186.03
2023-04-21T16:47:41.087Z,100177.38
2023-04-21T16:50:10.192Z,100184.56
2023-04-21T16:52:37.908Z,100172.66
2023-04-21T16:55:06.094Z,100171.06
2023-04-21T16:57:34.252Z,100173.09
2023-04-21T17:00:04.674Z,100180.19
2023-04-21T17:02:32.579Z,100165.41
2023-04-21T17:05:00.729Z,100165.25
2023-04-21T17:07:28.568Z,100168.06
2023-04-21T17:09:56.122Z,100174.94
2023-04-21T17:12:23.851Z,100161.78
2023-04-21T17:14:51.363Z,100155.84
2023-04-21T17:17:18.875Z,100151.53
2023-04-21T17:19:46.466Z,100149.81
2023-04-21T17:22:13.880Z,100141.03
2023-04-21T17:24:52.510Z,100149.75
2023-04-21T17:27:21.617Z,100138.34
2023-04-21T17:29:49.209Z,100138.38
2023-04-21T17:32:16.994Z,100143.72
2023-04-21T17:34:44.636Z,100144.66
2023-04-21T17:37:12.171Z,100146.47
2023-04-21T17:39:39.657Z,100134.31
2023-04-21T17:42:07.088Z,100140.34
2023-04-21T17:44:34.999Z,100136.03
2023-04-21T17:47:08.168Z,100131.69
2023-04-21T17:49:37.046Z,100139.59
2023-04-21T17:52:05.657Z,100138.81
2023-04-21T17:54:33.141Z,100144.09
2023-04-21T17:57:02.093Z,100145.00
2023-04-21T17:59:30.734Z,100141.44
2023-04-21T18:01:59.239Z,100150.19
2023-04-21T18:04:29.835Z,100145.00
2023-04-21T18:06:57.465Z,100149.34
2023-04-21T18:09:25.618Z,100156.25
2023-04-21T18:11:53.071Z,100150.16
2023-04-21T18:14:21.295Z,100166.88
2023-04-21T18:16:48.768Z,100157.28
2023-04-21T18:19:18.377Z,100157.44
2023-04-21T18:21:46.016Z,100155.56
2023-04-21T18:24:13.605Z,100149.56
2023-04-21T18:26:41.231Z,100152.28
2023-04-21T18:29:08.830Z,100163.59
2023-04-21T18:31:36.411Z,100154.13
2023-04-21T18:34:03.951Z,100142.81
2023-04-21T18:36:33.439Z,100150.75
2023-04-21T18:39:01.319Z,100140.31
2023-04-21T18:41:28.994Z,100140.34
2023-04-21T18:43:56.719Z,100141.31
2023-04-21T18:46:24.208Z,100139.66
2023-04-21T18:48:53.255Z,100133.56
2023-04-21T18:51:20.722Z,100138.78
2023-04-21T18:53:48.362Z,100138.00
2023-04-21T18:56:15.872Z,100152.03
2023-04-21T18:58:43.365Z,100152.94
2023-04-21T19:01:10.912Z,100154.75
2023-04-21T19:03:38.525Z,100154.75
2023-04-21T19:06:06.411Z,100159.03
2023-04-21T19:08:42.170Z,100155.63
2023-04-21T19:11:13.793Z,100160.91
2023-04-21T19:13:41.422Z,100156.50
2023-04-21T19:16:11.844Z,100163.47
2023-04-21T19:18:39.311Z,100153.91
2023-04-21T19:21:07.262Z,100156.53
2023-04-21T19:23:34.853Z,100150.53
2023-04-21T19:26:05.166Z,100157.41
2023-04-21T19:28:32.831Z,100160.91
2023-04-21T19:31:00.405Z,100154.09
2023-04-21T19:33:28.155Z,100165.56
2023-04-21T19:35:56.185Z,100162.16
2023-04-21T19:38:23.660Z,100161.06
2023-04-21T19:40:51.227Z,100154.88
2023-04-21T19:43:20.387Z,100155.03
2023-04-21T19:45:48.383Z,100156.88
2023-04-21T19:48:16.094Z,100155.94
2023-04-21T19:50:43.583Z,100150.91
2023-04-21T19:53:14.781Z,100143.97
2023-04-21T19:55:43.014Z,100142.13
2023-04-21T19:58:10.691Z,100149.91
2023-04-21T20:00:38.543Z,100143.06
2023-04-21T20:03:07.257Z,100140.41
2023-04-21T20:05:35.172Z,100128.19
2023-04-21T20:08:02.683Z,100124.72
2023-04-21T20:10:30.176Z,100129.25
2023-04-21T20:12:57.425Z,100130.94
2023-04-21T20:15:24.869Z,100124.75
2023-04-21T20:17:52.252Z,100125.75
2023-04-21T20:20:19.767Z,100124.03
2023-04-21T20:22:48.086Z,100124.84
2023-04-21T20:25:15.712Z,100129.25
2023-04-21T20:27:43.217Z,100128.38
2023-04-21T20:30:10.903Z,100123.16
2023-04-21T20:32:38.338Z,100114.44
2023-04-21T20:35:08.159Z,100124.03
2023-04-21T20:37:36.026Z,100114.50
2023-04-21T20:40:08.479Z,100124.16
2023-04-21T20:42:36.460Z,100108.47
2023-04-21T20:45:06.282Z,100099.66
2023-04-21T20:47:34.211Z,100101.50
2023-04-21T20:50:01.806Z,100098.03
2023-04-21T20:52:29.585Z,100100.66
2023-04-21T20:54:57.158Z,100098.88
2023-04-21T20:57:27.015Z,100106.78
2023-04-21T20:59:54.877Z,100107.75
2023-04-21T21:02:22.517Z,100105.13
2023-04-21T21:04:50.212Z,100106.06
2023-04-21T21:07:17.856Z,100103.31
2023-04-21T21:09:46.078Z,100101.59
2023-04-21T21:12:13.596Z,100112.97
2023-04-21T21:14:40.984Z,100105.06
2023-04-21T21:17:08.450Z,100115.63
2023-04-21T21:19:36.072Z,100112.97
2023-04-21T21:22:03.782Z,100114.72
2023-04-21T21:24:31.248Z,100117.25
2023-04-21T21:26:58.738Z,100123.44
2023-04-21T21:29:26.170Z,100129.50
2023-04-21T21:31:53.674Z,100135.66
2023-04-21T21:34:21.121Z,100134.84
2023-04-21T21:36:48.719Z,100141.84
2023-04-21T21:39:16.193Z,100144.47
2023-04-21T21:41:43.881Z,100154.94
2023-04-21T21:44:11.429Z,100151.47
2023-04-21T21:46:39.179Z,100146.22
2023-04-21T21:49:06.729Z,100140.97
2023-04-21T21:51:34.358Z,100138.31
2023-04-21T21:54:01.836Z,100135.66
2023-04-21T21:56:29.285Z,100124.34
2023-04-21T21:58:56.518Z,100138.38
2023-04-21T22:01:23.881Z,100127.97
2023-04-21T22:03:52.127Z,100127.13
2023-04-21T22:06:22.210Z,100133.22
2023-04-21T22:08:49.828Z,100124.53
2023-04-21T22:11:19.810Z,100121.06
2023-04-21T22:13:47.213Z,100125.44
2023-04-21T22:16:14.879Z,100128.88
2023-04-21T22:18:43.405Z,100109.72
2023-04-21T22:21:11.830Z,100101.84
2023-04-21T22:23:39.264Z,100103.63
2023-04-21T22:26:06.692Z,100107.13
2023-04-21T22:28:33.986Z,100104.47
2023-04-21T22:31:01.387Z,100106.28
2023-04-21T22:33:29.247Z,100110.66
2023-04-21T22:35:56.770Z,100134.22
2023-04-21T22:38:24.269Z,100140.31
2023-04-21T22:40:51.925Z,100133.41
2023-04-21T22:43:19.474Z,100133.38
2023-04-21T22:45:47.569Z,100142.03
2023-04-21T22:48:15.012Z,100133.31
2023-04-21T22:50:44.911Z,100137.69
2023-04-21T22:53:13.399Z,100122.03
2023-04-21T22:55:40.947Z,100125.53
2023-04-21T22:58:08.399Z,100115.94
2023-04-21T23:00:35.931Z,100115.06
2023-04-21T23:03:03.619Z,100112.44
2023-04-21T23:05:31.386Z,100102.91
2023-04-21T23:07:58.829Z,100116.84
2023-04-21T23:10:26.325Z,100112.50
2023-04-21T23:12:53.703Z,100112.47
2023-04-21T23:15:21.492Z,100113.34
2023-04-21T23:17:48.901Z,100118.56
2023-04-21T23:20:16.549Z,100113.34
2023-04-21T23:22:44.058Z,100103.75
2023-04-21T23:25:11.603Z,100100.28
2023-04-21T23:27:39.030Z,100087.25
2023-04-21T23:30:07.538Z,100069.88
2023-04-21T23:32:35.249Z,100074.16
2023-04-21T23:35:02.829Z,100059.44
2023-04-21T23:37:30.317Z,100047.19
2023-04-21T23:39:57.719Z,100037.63
2023-04-21T23:42:24.973Z,100039.44
2023-04-21T23:44:52.384Z,100031.56
2023-04-21T23:47:19.651Z,100040.25
2023-04-21T23:49:47.138Z,100028.09
2023-04-21T23:52:15.101Z,100047.25
2023-04-21T23:54:42.708Z,100042.03
2023-04-21T23:57:10.213Z,100028.06
2023-04-21T23:59:37.937Z,100024.66
